sensor_id;sensor_type;location;lat;lon;timestamp;temperature;humidity
52285;DHT22;38238;53.304;6.606;2023-03-01T00:01:14;1.10;99.90
52285;DHT22;38238;53.304;6.606;2023-03-01T00:03:41;2.00;99.90
52285;DHT22;38238;53.304;6.606;2023-03-01T00:06:07;2.20;99.90
52285;DHT22;38238;53.304;6.606;2023-03-01T00:08:34;1.90;99.90
52285;DHT22;38238;53.304;6.606;2023-03-01T00:11:04;1.10;99.90
52285;DHT22;38238;53.304;6.606;2023-03-01T00:13:30;1.10;99.90
52285;DHT22;38238;53.304;6.606;2023-03-01T00:15:56;1.10;99.90
52285;DHT22;38238;53.304;6.606;2023-03-01T00:18:21;1.10;99.90
52285;DHT22;38238;53.304;6.606;2023-03-01T00:20:56;1.10;99.90
52285;DHT22;38238;53.304;6.606;2023-03-01T00:23:22;1.60;99.90
52285;DHT22;38238;53.304;6.606;2023-03-01T00:25:49;1.80;99.90
52285;DHT22;38238;53.304;6.606;2023-03-01T00:28:15;1.00;99.90
52285;DHT22;38238;53.304;6.606;2023-03-01T00:30:41;1.00;99.90
52285;DHT22;38238;53.304;6.606;2023-03-01T00:33:07;1.40;99.90
52285;DHT22;38238;53.304;6.606;2023-03-01T00:35:33;0.90;99.90
52285;DHT22;38238;53.304;6.606;2023-03-01T00:38:00;0.90;99.90
52285;DHT22;38238;53.304;6.606;2023-03-01T00:40:27;2.00;99.90
52285;DHT22;38238;53.304;6.606;2023-03-01T00:42:52;0.90;99.90
52285;DHT22;38238;53.304;6.606;2023-03-01T00:45:18;1.00;99.90
52285;DHT22;38238;53.304;6.606;2023-03-01T00:47:44;0.90;99.90
52285;DHT22;38238;53.304;6.606;2023-03-01T00:50:10;1.40;99.90
52285;DHT22;38238;53.304;6.606;2023-03-01T00:52:36;0.90;99.90
52285;DHT22;38238;53.304;6.606;2023-03-01T00:55:03;0.80;99.90
52285;DHT22;38238;53.304;6.606;2023-03-01T00:57:29;0.80;99.90
52285;DHT22;38238;53.304;6.606;2023-03-01T00:59:55;0.70;99.90
52285;DHT22;38238;53.304;6.606;2023-03-01T01:02:21;1.80;99.90
52285;DHT22;38238;53.304;6.606;2023-03-01T01:04:47;0.60;99.90
52285;DHT22;38238;53.304;6.606;2023-03-01T01:07:13;0.60;99.90
52285;DHT22;38238;53.304;6.606;2023-03-01T01:09:39;1.70;99.90
52285;DHT22;38238;53.304;6.606;2023-03-01T01:12:05;0.60;99.90
52285;DHT22;38238;53.304;6.606;2023-03-01T01:14:31;1.20;99.90
52285;DHT22;38238;53.304;6.606;2023-03-01T01:16:57;0.60;99.90
52285;DHT22;38238;53.304;6.606;2023-03-01T01:19:24;0.40;99.90
52285;DHT22;38238;53.304;6.606;2023-03-01T01:21:50;0.40;99.90
52285;DHT22;38238;53.304;6.606;2023-03-01T01:24:17;0.40;99.90
52285;DHT22;38238;53.304;6.606;2023-03-01T01:26:43;1.60;99.90
52285;DHT22;38238;53.304;6.606;2023-03-01T01:29:09;0.20;99.90
52285;DHT22;38238;53.304;6.606;2023-03-01T01:31:37;0.20;99.90
52285;DHT22;38238;53.304;6.606;2023-03-01T01:34:06;0.30;99.90
52285;DHT22;38238;53.304;6.606;2023-03-01T01:36:33;0.10;99.90
52285;DHT22;38238;53.304;6.606;2023-03-01T01:38:59;1.10;99.90
52285;DHT22;38238;53.304;6.606;2023-03-01T01:41:27;0.20;99.90
52285;DHT22;38238;53.304;6.606;2023-03-01T01:44:16;0.10;99.90
52285;DHT22;38238;53.304;6.606;2023-03-01T01:46:47;0.10;99.90
52285;DHT22;38238;53.304;6.606;2023-03-01T01:49:30;0.10;99.90
52285;DHT22;38238;53.304;6.606;2023-03-01T01:52:05;0.00;99.90
52285;DHT22;38238;53.304;6.606;2023-03-01T01:57:20;-0.20;99.90
52285;DHT22;38238;53.304;6.606;2023-03-01T01:59:51;-0.30;99.90
52285;DHT22;38238;53.304;6.606;2023-03-01T02:02:18;-0.30;99.90
52285;DHT22;38238;53.304;6.606;2023-03-01T02:04:45;-0.30;99.90
52285;DHT22;38238;53.304;6.606;2023-03-01T02:07:21;-0.30;99.90
52285;DHT22;38238;53.304;6.606;2023-03-01T02:09:50;-0.40;99.90
52285;DHT22;38238;53.304;6.606;2023-03-01T02:12:19;-0.40;99.90
52285;DHT22;38238;53.304;6.606;2023-03-01T02:14:45;0.10;99.90
52285;DHT22;38238;53.304;6.606;2023-03-01T02:17:12;-0.50;99.90
52285;DHT22;38238;53.304;6.606;2023-03-01T02:22:33;-0.50;99.90
52285;DHT22;38238;53.304;6.606;2023-03-01T02:27:54;-0.50;99.90
52285;DHT22;38238;53.304;6.606;2023-03-01T02:30:22;-0.60;99.90
52285;DHT22;38238;53.304;6.606;2023-03-01T02:32:52;-0.60;99.90
52285;DHT22;38238;53.304;6.606;2023-03-01T02:35:20;-0.70;99.90
52285;DHT22;38238;53.304;6.606;2023-03-01T02:37:47;-0.70;99.90
52285;DHT22;38238;53.304;6.606;2023-03-01T02:40:18;-0.70;99.90
52285;DHT22;38238;53.304;6.606;2023-03-01T02:42:51;-0.70;99.90
52285;DHT22;38238;53.304;6.606;2023-03-01T02:45:17;-0.70;99.90
52285;DHT22;38238;53.304;6.606;2023-03-01T02:47:43;-0.60;99.90
52285;DHT22;38238;53.304;6.606;2023-03-01T02:53:01;-0.60;99.90
52285;DHT22;38238;53.304;6.606;2023-03-01T02:55:30;-0.60;99.90
52285;DHT22;38238;53.304;6.606;2023-03-01T02:57:56;-0.60;99.90
52285;DHT22;38238;53.304;6.606;2023-03-01T03:00:34;-0.60;99.90
52285;DHT22;38238;53.304;6.606;2023-03-01T03:03:01;-0.60;99.90
52285;DHT22;38238;53.304;6.606;2023-03-01T03:05:30;-0.50;99.90
52285;DHT22;38238;53.304;6.606;2023-03-01T03:07:57;-0.50;99.90
52285;DHT22;38238;53.304;6.606;2023-03-01T03:10:26;-0.50;99.90
52285;DHT22;38238;53.304;6.606;2023-03-01T03:13:05;0.80;99.90
52285;DHT22;38238;53.304;6.606;2023-03-01T03:15:31;-0.50;99.90
52285;DHT22;38238;53.304;6.606;2023-03-01T03:17:58;-0.10;99.90
52285;DHT22;38238;53.304;6.606;2023-03-01T03:20:26;1.10;99.90
52285;DHT22;38238;53.304;6.606;2023-03-01T03:22:54;-0.40;99.90
52285;DHT22;38238;53.304;6.606;2023-03-01T03:25:20;-0.50;99.90
52285;DHT22;38238;53.304;6.606;2023-03-01T03:27:48;-0.50;99.90
52285;DHT22;38238;53.304;6.606;2023-03-01T03:30:18;0.60;99.90
52285;DHT22;38238;53.304;6.606;2023-03-01T03:32:47;1.20;99.90
52285;DHT22;38238;53.304;6.606;2023-03-01T03:35:24;-0.50;99.90
52285;DHT22;38238;53.304;6.606;2023-03-01T03:37:51;-0.60;99.90
52285;DHT22;38238;53.304;6.606;2023-03-01T03:40:39;-0.70;99.90
52285;DHT22;38238;53.304;6.606;2023-03-01T03:43:12;-0.70;99.90
52285;DHT22;38238;53.304;6.606;2023-03-01T03:45:38;-0.70;99.90
52285;DHT22;38238;53.304;6.606;2023-03-01T03:48:06;-0.20;99.90
52285;DHT22;38238;53.304;6.606;2023-03-01T03:50:32;-1.20;99.90
52285;DHT22;38238;53.304;6.606;2023-03-01T03:53:01;-1.10;99.90
52285;DHT22;38238;53.304;6.606;2023-03-01T03:55:27;-1.80;99.90
52285;DHT22;38238;53.304;6.606;2023-03-01T03:57:57;-2.00;99.90
52285;DHT22;38238;53.304;6.606;2023-03-01T04:00:23;-2.20;99.90
52285;DHT22;38238;53.304;6.606;2023-03-01T04:02:50;-2.40;99.90
52285;DHT22;38238;53.304;6.606;2023-03-01T04:05:18;-2.40;99.90
52285;DHT22;38238;53.304;6.606;2023-03-01T04:07:45;-2.40;99.90
52285;DHT22;38238;53.304;6.606;2023-03-01T04:10:16;-2.40;99.90
52285;DHT22;38238;53.304;6.606;2023-03-01T04:12:42;-1.00;99.90
52285;DHT22;38238;53.304;6.606;2023-03-01T04:15:10;-2.30;99.90
52285;DHT22;38238;53.304;6.606;2023-03-01T04:17:40;-2.20;99.90
52285;DHT22;38238;53.304;6.606;2023-03-01T04:20:08;-2.10;99.90
52285;DHT22;38238;53.304;6.606;2023-03-01T04:22:34;-2.00;99.90
52285;DHT22;38238;53.304;6.606;2023-03-01T04:25:00;-1.90;99.90
52285;DHT22;38238;53.304;6.606;2023-03-01T04:27:35;-1.30;99.90
52285;DHT22;38238;53.304;6.606;2023-03-01T04:30:04;-1.80;99.90
52285;DHT22;38238;53.304;6.606;2023-03-01T04:32:31;-1.70;99.90
52285;DHT22;38238;53.304;6.606;2023-03-01T04:34:57;-1.70;99.90
52285;DHT22;38238;53.304;6.606;2023-03-01T04:37:23;-1.70;99.90
52285;DHT22;38238;53.304;6.606;2023-03-01T04:39:49;-1.70;99.90
52285;DHT22;38238;53.304;6.606;2023-03-01T04:42:15;-1.70;99.90
52285;DHT22;38238;53.304;6.606;2023-03-01T04:44:42;-1.70;99.90
52285;DHT22;38238;53.304;6.606;2023-03-01T04:47:08;-1.70;99.90
52285;DHT22;38238;53.304;6.606;2023-03-01T04:49:34;-1.70;99.90
52285;DHT22;38238;53.304;6.606;2023-03-01T04:52:00;-1.70;99.90
52285;DHT22;38238;53.304;6.606;2023-03-01T04:54:34;-1.60;99.90
52285;DHT22;38238;53.304;6.606;2023-03-01T04:57:01;-1.60;99.90
52285;DHT22;38238;53.304;6.606;2023-03-01T04:59:28;-1.70;99.90
52285;DHT22;38238;53.304;6.606;2023-03-01T05:01:55;-1.70;99.90
52285;DHT22;38238;53.304;6.606;2023-03-01T05:04:24;-1.60;99.90
52285;DHT22;38238;53.304;6.606;2023-03-01T05:06:50;-1.60;99.90
52285;DHT22;38238;53.304;6.606;2023-03-01T05:09:16;-1.60;99.90
52285;DHT22;38238;53.304;6.606;2023-03-01T05:11:42;-0.80;99.90
52285;DHT22;38238;53.304;6.606;2023-03-01T05:14:08;-1.60;99.90
52285;DHT22;38238;53.304;6.606;2023-03-01T05:16:35;-1.50;99.90
52285;DHT22;38238;53.304;6.606;2023-03-01T05:19:02;-1.50;99.90
52285;DHT22;38238;53.304;6.606;2023-03-01T05:21:38;-1.50;99.90
52285;DHT22;38238;53.304;6.606;2023-03-01T05:24:27;-1.50;99.90
52285;DHT22;38238;53.304;6.606;2023-03-01T05:26:53;-1.30;99.90
52285;DHT22;38238;53.304;6.606;2023-03-01T05:29:23;-1.50;99.90
52285;DHT22;38238;53.304;6.606;2023-03-01T05:31:54;-1.50;99.90
52285;DHT22;38238;53.304;6.606;2023-03-01T05:34:38;-1.60;99.90
52285;DHT22;38238;53.304;6.606;2023-03-01T05:37:04;-1.60;99.90
52285;DHT22;38238;53.304;6.606;2023-03-01T05:39:30;-1.60;99.90
52285;DHT22;38238;53.304;6.606;2023-03-01T05:41:58;-1.60;99.90
52285;DHT22;38238;53.304;6.606;2023-03-01T05:44:25;-1.60;99.90
52285;DHT22;38238;53.304;6.606;2023-03-01T05:46:51;-1.30;99.90
52285;DHT22;38238;53.304;6.606;2023-03-01T05:49:18;-1.50;99.90
52285;DHT22;38238;53.304;6.606;2023-03-01T05:51:48;-1.60;99.90
52285;DHT22;38238;53.304;6.606;2023-03-01T05:54:14;-1.60;99.90
52285;DHT22;38238;53.304;6.606;2023-03-01T05:56:40;-1.60;99.90
52285;DHT22;38238;53.304;6.606;2023-03-01T05:59:06;-1.70;99.90
52285;DHT22;38238;53.304;6.606;2023-03-01T06:01:32;-0.70;99.90
52285;DHT22;38238;53.304;6.606;2023-03-01T06:03:58;-1.70;99.90
52285;DHT22;38238;53.304;6.606;2023-03-01T06:06:24;-1.80;99.90
52285;DHT22;38238;53.304;6.606;2023-03-01T06:08:51;-1.80;99.90
52285;DHT22;38238;53.304;6.606;2023-03-01T06:11:18;-1.00;99.90
52285;DHT22;38238;53.304;6.606;2023-03-01T06:13:44;-1.90;99.90
52285;DHT22;38238;53.304;6.606;2023-03-01T06:16:11;-1.90;99.90
52285;DHT22;38238;53.304;6.606;2023-03-01T06:18:37;-1.90;99.90
52285;DHT22;38238;53.304;6.606;2023-03-01T06:21:04;-1.80;99.90
52285;DHT22;38238;53.304;6.606;2023-03-01T06:23:30;-2.00;99.90
52285;DHT22;38238;53.304;6.606;2023-03-01T06:25:56;-2.00;99.90
52285;DHT22;38238;53.304;6.606;2023-03-01T06:28:22;-1.90;99.90
52285;DHT22;38238;53.304;6.606;2023-03-01T06:30:49;-1.90;99.90
52285;DHT22;38238;53.304;6.606;2023-03-01T06:33:15;-1.90;99.90
52285;DHT22;38238;53.304;6.606;2023-03-01T06:35:40;-1.10;99.90
52285;DHT22;38238;53.304;6.606;2023-03-01T06:38:06;-0.30;99.90
52285;DHT22;38238;53.304;6.606;2023-03-01T06:40:32;-1.80;99.90
52285;DHT22;38238;53.304;6.606;2023-03-01T06:43:00;-1.80;99.90
52285;DHT22;38238;53.304;6.606;2023-03-01T06:45:26;-1.80;99.90
52285;DHT22;38238;53.304;6.606;2023-03-01T06:47:52;-1.80;99.90
52285;DHT22;38238;53.304;6.606;2023-03-01T06:50:18;-1.10;99.90
52285;DHT22;38238;53.304;6.606;2023-03-01T06:52:44;-1.70;99.90
52285;DHT22;38238;53.304;6.606;2023-03-01T06:55:11;-1.70;99.90
52285;DHT22;38238;53.304;6.606;2023-03-01T06:57:37;-1.60;99.90
52285;DHT22;38238;53.304;6.606;2023-03-01T07:00:04;0.00;99.90
52285;DHT22;38238;53.304;6.606;2023-03-01T07:02:31;-1.60;99.90
52285;DHT22;38238;53.304;6.606;2023-03-01T07:04:56;-1.50;99.90
52285;DHT22;38238;53.304;6.606;2023-03-01T07:07:22;-1.40;99.90
52285;DHT22;38238;53.304;6.606;2023-03-01T07:09:48;-1.50;99.90
52285;DHT22;38238;53.304;6.606;2023-03-01T07:12:14;-1.10;99.90
52285;DHT22;38238;53.304;6.606;2023-03-01T07:14:40;-0.50;99.90
52285;DHT22;38238;53.304;6.606;2023-03-01T07:17:06;-1.40;99.90
52285;DHT22;38238;53.304;6.606;2023-03-01T07:19:32;-1.40;99.90
52285;DHT22;38238;53.304;6.606;2023-03-01T07:21:57;-1.30;99.90
52285;DHT22;38238;53.304;6.606;2023-03-01T07:24:23;-1.30;99.90
52285;DHT22;38238;53.304;6.606;2023-03-01T07:26:50;-1.20;99.90
52285;DHT22;38238;53.304;6.606;2023-03-01T07:29:17;0.20;99.90
52285;DHT22;38238;53.304;6.606;2023-03-01T07:31:43;-0.50;99.90
52285;DHT22;38238;53.304;6.606;2023-03-01T07:34:09;-1.10;99.90
52285;DHT22;38238;53.304;6.606;2023-03-01T07:36:36;-1.10;99.90
52285;DHT22;38238;53.304;6.606;2023-03-01T07:39:02;-1.00;99.90
52285;DHT22;38238;53.304;6.606;2023-03-01T07:41:29;-1.00;99.90
52285;DHT22;38238;53.304;6.606;2023-03-01T07:43:55;-1.00;99.90
52285;DHT22;38238;53.304;6.606;2023-03-01T07:46:20;-0.20;99.90
52285;DHT22;38238;53.304;6.606;2023-03-01T07:48:46;-0.90;99.90
52285;DHT22;38238;53.304;6.606;2023-03-01T07:51:12;-0.90;99.90
52285;DHT22;38238;53.304;6.606;2023-03-01T07:53:38;0.40;99.90
52285;DHT22;38238;53.304;6.606;2023-03-01T07:56:12;-0.80;99.90
52285;DHT22;38238;53.304;6.606;2023-03-01T07:58:42;-0.70;99.90
52285;DHT22;38238;53.304;6.606;2023-03-01T08:01:13;-0.70;99.90
52285;DHT22;38238;53.304;6.606;2023-03-01T08:03:40;-0.70;99.90
52285;DHT22;38238;53.304;6.606;2023-03-01T08:06:08;-0.60;99.90
52285;DHT22;38238;53.304;6.606;2023-03-01T08:08:35;-0.50;99.90
52285;DHT22;38238;53.304;6.606;2023-03-01T08:11:02;-2.30;99.90
52285;DHT22;38238;53.304;6.606;2023-03-01T08:13:28;-0.40;99.90
52285;DHT22;38238;53.304;6.606;2023-03-01T08:15:54;1.10;99.90
52285;DHT22;38238;53.304;6.606;2023-03-01T08:18:21;-0.20;99.90
52285;DHT22;38238;53.304;6.606;2023-03-01T08:20:47;-0.10;99.90
52285;DHT22;38238;53.304;6.606;2023-03-01T08:23:12;0.90;99.90
52285;DHT22;38238;53.304;6.606;2023-03-01T08:25:39;0.10;99.90
52285;DHT22;38238;53.304;6.606;2023-03-01T08:28:05;0.50;99.90
52285;DHT22;38238;53.304;6.606;2023-03-01T08:30:31;1.40;99.90
52285;DHT22;38238;53.304;6.606;2023-03-01T08:32:57;0.50;99.90
52285;DHT22;38238;53.304;6.606;2023-03-01T08:35:23;0.40;99.90
52285;DHT22;38238;53.304;6.606;2023-03-01T08:37:48;1.00;99.90
52285;DHT22;38238;53.304;6.606;2023-03-01T08:40:14;1.60;99.90
52285;DHT22;38238;53.304;6.606;2023-03-01T08:42:41;0.70;99.90
52285;DHT22;38238;53.304;6.606;2023-03-01T08:45:09;0.80;99.90
52285;DHT22;38238;53.304;6.606;2023-03-01T08:47:35;0.80;99.90
52285;DHT22;38238;53.304;6.606;2023-03-01T08:50:01;1.00;99.90
52285;DHT22;38238;53.304;6.606;2023-03-01T08:52:27;1.10;99.90
52285;DHT22;38238;53.304;6.606;2023-03-01T08:54:53;1.20;99.90
52285;DHT22;38238;53.304;6.606;2023-03-01T08:57:19;1.40;99.90
52285;DHT22;38238;53.304;6.606;2023-03-01T08:59:44;1.50;99.90
52285;DHT22;38238;53.304;6.606;2023-03-01T09:02:16;1.50;99.90
52285;DHT22;38238;53.304;6.606;2023-03-01T09:04:42;1.80;99.90
52285;DHT22;38238;53.304;6.606;2023-03-01T09:07:08;1.80;99.90
52285;DHT22;38238;53.304;6.606;2023-03-01T09:09:34;1.90;99.90
52285;DHT22;38238;53.304;6.606;2023-03-01T09:12:01;2.00;99.90
52285;DHT22;38238;53.304;6.606;2023-03-01T09:14:27;2.00;99.90
52285;DHT22;38238;53.304;6.606;2023-03-01T09:16:52;2.20;99.90
52285;DHT22;38238;53.304;6.606;2023-03-01T09:19:18;2.60;99.90
52285;DHT22;38238;53.304;6.606;2023-03-01T09:21:44;2.30;99.90
52285;DHT22;38238;53.304;6.606;2023-03-01T09:24:20;2.40;99.90
52285;DHT22;38238;53.304;6.606;2023-03-01T09:26:47;2.50;99.90
52285;DHT22;38238;53.304;6.606;2023-03-01T09:29:13;2.60;99.90
52285;DHT22;38238;53.304;6.606;2023-03-01T09:31:39;2.60;99.90
52285;DHT22;38238;53.304;6.606;2023-03-01T09:34:06;2.70;99.90
52285;DHT22;38238;53.304;6.606;2023-03-01T09:36:32;2.90;99.90
52285;DHT22;38238;53.304;6.606;2023-03-01T09:38:58;3.00;99.90
52285;DHT22;38238;53.304;6.606;2023-03-01T09:41:49;4.50;99.90
52285;DHT22;38238;53.304;6.606;2023-03-01T09:44:29;3.20;99.90
52285;DHT22;38238;53.304;6.606;2023-03-01T09:46:57;4.00;99.90
52285;DHT22;38238;53.304;6.606;2023-03-01T09:49:43;3.40;99.90
52285;DHT22;38238;53.304;6.606;2023-03-01T09:52:36;3.50;99.90
52285;DHT22;38238;53.304;6.606;2023-03-01T09:55:20;3.50;99.90
52285;DHT22;38238;53.304;6.606;2023-03-01T09:57:52;3.60;99.90
52285;DHT22;38238;53.304;6.606;2023-03-01T10:08:42;3.90;99.90
52285;DHT22;38238;53.304;6.606;2023-03-01T10:11:28;3.90;99.90
52285;DHT22;38238;53.304;6.606;2023-03-01T10:16:50;4.20;99.90
52285;DHT22;38238;53.304;6.606;2023-03-01T10:19:36;4.30;99.90
52285;DHT22;38238;53.304;6.606;2023-03-01T10:24:37;4.40;99.90
52285;DHT22;38238;53.304;6.606;2023-03-01T10:27:20;5.70;99.90
52285;DHT22;38238;53.304;6.606;2023-03-01T10:29:59;4.60;99.90
52285;DHT22;38238;53.304;6.606;2023-03-01T10:32:26;4.70;99.90
52285;DHT22;38238;53.304;6.606;2023-03-01T10:34:52;4.80;99.90
52285;DHT22;38238;53.304;6.606;2023-03-01T10:37:20;4.90;99.90
52285;DHT22;38238;53.304;6.606;2023-03-01T10:40:08;5.10;99.90
52285;DHT22;38238;53.304;6.606;2023-03-01T10:42:40;5.20;99.90
52285;DHT22;38238;53.304;6.606;2023-03-01T10:48:13;6.70;99.90
52285;DHT22;38238;53.304;6.606;2023-03-01T10:50:44;8.20;99.90
52285;DHT22;38238;53.304;6.606;2023-03-01T10:53:29;9.50;99.90
52285;DHT22;38238;53.304;6.606;2023-03-01T10:56:00;10.50;99.90
52285;DHT22;38238;53.304;6.606;2023-03-01T10:58:27;11.20;99.90
52285;DHT22;38238;53.304;6.606;2023-03-01T11:00:56;11.50;99.90
52285;DHT22;38238;53.304;6.606;2023-03-01T11:03:34;11.80;99.90
52285;DHT22;38238;53.304;6.606;2023-03-01T11:06:19;11.80;99.90
52285;DHT22;38238;53.304;6.606;2023-03-01T11:08:48;11.70;99.90
52285;DHT22;38238;53.304;6.606;2023-03-01T11:14:21;11.60;99.90
52285;DHT22;38238;53.304;6.606;2023-03-01T11:16:57;11.80;99.90
52285;DHT22;38238;53.304;6.606;2023-03-01T11:19:25;12.10;99.90
52285;DHT22;38238;53.304;6.606;2023-03-01T11:22:12;12.20;99.90
52285;DHT22;38238;53.304;6.606;2023-03-01T11:24:46;12.20;99.90
52285;DHT22;38238;53.304;6.606;2023-03-01T11:27:27;12.10;99.90
52285;DHT22;38238;53.304;6.606;2023-03-01T11:29:59;12.00;99.90
52285;DHT22;38238;53.304;6.606;2023-03-01T11:32:29;11.90;99.90
52285;DHT22;38238;53.304;6.606;2023-03-01T11:35:07;11.80;99.90
52285;DHT22;38238;53.304;6.606;2023-03-01T11:40:26;12.40;99.90
52285;DHT22;38238;53.304;6.606;2023-03-01T11:45:23;13.00;99.90
52285;DHT22;38238;53.304;6.606;2023-03-01T11:50:42;13.40;99.50
52285;DHT22;38238;53.304;6.606;2023-03-01T11:56:00;13.70;98.50
52285;DHT22;38238;53.304;6.606;2023-03-01T12:04:11;13.20;97.90
52285;DHT22;38238;53.304;6.606;2023-03-01T12:09:38;13.50;97.60
52285;DHT22;38238;53.304;6.606;2023-03-01T12:18:02;13.70;96.80
52285;DHT22;38238;53.304;6.606;2023-03-01T12:20:44;13.60;95.70
52285;DHT22;38238;53.304;6.606;2023-03-01T12:37:42;14.00;95.20
52285;DHT22;38238;53.304;6.606;2023-03-01T12:50:53;13.70;93.80
52285;DHT22;38238;53.304;6.606;2023-03-01T12:55:51;13.80;93.40
52285;DHT22;38238;53.304;6.606;2023-03-01T12:58:28;13.50;93.10
52285;DHT22;38238;53.304;6.606;2023-03-01T13:11:34;10.70;95.70
52285;DHT22;38238;53.304;6.606;2023-03-01T13:16:54;9.50;97.60
52285;DHT22;38238;53.304;6.606;2023-03-01T13:19:24;9.10;98.70
52285;DHT22;38238;53.304;6.606;2023-03-01T13:21:52;8.70;99.10
52285;DHT22;38238;53.304;6.606;2023-03-01T13:29:56;8.40;99.90
52285;DHT22;38238;53.304;6.606;2023-03-01T13:32:24;8.40;99.90
52285;DHT22;38238;53.304;6.606;2023-03-01T13:34:58;8.40;99.90
52285;DHT22;38238;53.304;6.606;2023-03-01T13:37:36;8.40;99.90
52285;DHT22;38238;53.304;6.606;2023-03-01T13:45:33;8.40;99.90
52285;DHT22;38238;53.304;6.606;2023-03-01T13:48:04;8.30;99.90
52285;DHT22;38238;53.304;6.606;2023-03-01T13:50:38;8.40;99.90
52285;DHT22;38238;53.304;6.606;2023-03-01T13:53:11;8.40;99.90
52285;DHT22;38238;53.304;6.606;2023-03-01T13:55:45;8.40;99.90
52285;DHT22;38238;53.304;6.606;2023-03-01T14:01:04;8.30;99.90
52285;DHT22;38238;53.304;6.606;2023-03-01T14:03:32;8.30;99.90
52285;DHT22;38238;53.304;6.606;2023-03-01T14:08:51;8.40;99.90
52285;DHT22;38238;53.304;6.606;2023-03-01T14:19:20;8.40;99.90
52285;DHT22;38238;53.304;6.606;2023-03-01T14:21:59;8.50;99.90
52285;DHT22;38238;53.304;6.606;2023-03-01T14:24:29;8.50;99.90
52285;DHT22;38238;53.304;6.606;2023-03-01T14:26:58;8.60;99.90
52285;DHT22;38238;53.304;6.606;2023-03-01T14:29:37;8.60;99.90
52285;DHT22;38238;53.304;6.606;2023-03-01T14:32:30;8.70;99.90
52285;DHT22;38238;53.304;6.606;2023-03-01T14:34:58;8.70;99.90
52285;DHT22;38238;53.304;6.606;2023-03-01T14:37:27;8.80;99.90
52285;DHT22;38238;53.304;6.606;2023-03-01T14:39:53;8.80;99.90
52285;DHT22;38238;53.304;6.606;2023-03-01T14:42:22;8.80;99.90
52285;DHT22;38238;53.304;6.606;2023-03-01T14:44:50;8.90;99.90
52285;DHT22;38238;53.304;6.606;2023-03-01T14:47:27;8.90;99.90
52285;DHT22;38238;53.304;6.606;2023-03-01T14:50:01;8.90;99.90
52285;DHT22;38238;53.304;6.606;2023-03-01T14:52:35;8.80;99.90
52285;DHT22;38238;53.304;6.606;2023-03-01T14:55:05;8.80;99.90
52285;DHT22;38238;53.304;6.606;2023-03-01T14:57:32;8.80;99.90
52285;DHT22;38238;53.304;6.606;2023-03-01T14:59:59;8.70;99.90
52285;DHT22;38238;53.304;6.606;2023-03-01T15:02:30;8.70;99.90
52285;DHT22;38238;53.304;6.606;2023-03-01T15:04:58;8.70;99.90
52285;DHT22;38238;53.304;6.606;2023-03-01T15:07:34;8.70;99.90
52285;DHT22;38238;53.304;6.606;2023-03-01T15:10:02;8.70;99.90
52285;DHT22;38238;53.304;6.606;2023-03-01T15:14:55;8.70;99.90
52285;DHT22;38238;53.304;6.606;2023-03-01T15:19:53;8.60;99.90
52285;DHT22;38238;53.304;6.606;2023-03-01T15:22:19;8.60;99.90
52285;DHT22;38238;53.304;6.606;2023-03-01T15:24:49;8.60;99.90
52285;DHT22;38238;53.304;6.606;2023-03-01T15:27:18;8.50;99.90
52285;DHT22;38238;53.304;6.606;2023-03-01T15:29:50;8.50;99.90
52285;DHT22;38238;53.304;6.606;2023-03-01T15:32:30;8.50;99.90
52285;DHT22;38238;53.304;6.606;2023-03-01T15:34:57;8.50;99.90
52285;DHT22;38238;53.304;6.606;2023-03-01T15:37:46;8.50;99.90
52285;DHT22;38238;53.304;6.606;2023-03-01T15:40:19;8.40;99.90
52285;DHT22;38238;53.304;6.606;2023-03-01T15:42:46;8.20;99.90
52285;DHT22;38238;53.304;6.606;2023-03-01T15:47:52;8.00;99.90
52285;DHT22;38238;53.304;6.606;2023-03-01T15:50:22;7.90;99.90
52285;DHT22;38238;53.304;6.606;2023-03-01T15:52:48;7.80;99.90
52285;DHT22;38238;53.304;6.606;2023-03-01T15:55:34;7.80;99.90
52285;DHT22;38238;53.304;6.606;2023-03-01T15:58:09;7.70;99.90
52285;DHT22;38238;53.304;6.606;2023-03-01T16:00:35;7.60;99.90
52285;DHT22;38238;53.304;6.606;2023-03-01T16:03:01;7.60;99.90
52285;DHT22;38238;53.304;6.606;2023-03-01T16:05:30;7.60;99.90
52285;DHT22;38238;53.304;6.606;2023-03-01T16:07:56;7.50;99.90
52285;DHT22;38238;53.304;6.606;2023-03-01T16:10:22;7.30;99.90
52285;DHT22;38238;53.304;6.606;2023-03-01T16:12:49;7.20;99.90
52285;DHT22;38238;53.304;6.606;2023-03-01T16:17:43;7.00;99.90
52285;DHT22;38238;53.304;6.606;2023-03-01T16:20:09;6.90;99.90
52285;DHT22;38238;53.304;6.606;2023-03-01T16:22:35;6.80;99.90
52285;DHT22;38238;53.304;6.606;2023-03-01T16:25:01;6.60;99.90
52285;DHT22;38238;53.304;6.606;2023-03-01T16:27:28;6.50;99.90
52285;DHT22;38238;53.304;6.606;2023-03-01T16:29:53;6.50;99.90
52285;DHT22;38238;53.304;6.606;2023-03-01T16:32:19;6.40;99.90
52285;DHT22;38238;53.304;6.606;2023-03-01T16:34:45;6.40;99.90
52285;DHT22;38238;53.304;6.606;2023-03-01T16:37:14;6.30;99.90
52285;DHT22;38238;53.304;6.606;2023-03-01T16:39:40;6.30;99.90
52285;DHT22;38238;53.304;6.606;2023-03-01T16:42:13;6.20;99.90
52285;DHT22;38238;53.304;6.606;2023-03-01T16:44:40;6.20;99.90
52285;DHT22;38238;53.304;6.606;2023-03-01T16:47:05;6.10;99.90
52285;DHT22;38238;53.304;6.606;2023-03-01T16:49:31;6.30;99.90
52285;DHT22;38238;53.304;6.606;2023-03-01T16:51:57;6.00;99.90
52285;DHT22;38238;53.304;6.606;2023-03-01T16:54:23;6.10;99.90
52285;DHT22;38238;53.304;6.606;2023-03-01T16:56:49;5.90;99.90
52285;DHT22;38238;53.304;6.606;2023-03-01T16:59:15;5.80;99.90
52285;DHT22;38238;53.304;6.606;2023-03-01T17:01:40;5.70;99.90
52285;DHT22;38238;53.304;6.606;2023-03-01T17:04:10;6.10;99.90
52285;DHT22;38238;53.304;6.606;2023-03-01T17:06:36;5.60;99.90
52285;DHT22;38238;53.304;6.606;2023-03-01T17:09:02;5.60;99.90
52285;DHT22;38238;53.304;6.606;2023-03-01T17:11:28;5.50;99.90
52285;DHT22;38238;53.304;6.606;2023-03-01T17:13:53;5.40;99.90
52285;DHT22;38238;53.304;6.606;2023-03-01T17:16:20;5.40;99.90
52285;DHT22;38238;53.304;6.606;2023-03-01T17:18:46;5.30;99.90
52285;DHT22;38238;53.304;6.606;2023-03-01T17:21:12;5.30;99.90
52285;DHT22;38238;53.304;6.606;2023-03-01T17:23:41;5.10;99.90
52285;DHT22;38238;53.304;6.606;2023-03-01T17:26:07;5.10;99.90
52285;DHT22;38238;53.304;6.606;2023-03-01T17:28:34;5.00;99.90
52285;DHT22;38238;53.304;6.606;2023-03-01T17:31:01;5.10;99.90
52285;DHT22;38238;53.304;6.606;2023-03-01T17:33:27;4.90;99.90
52285;DHT22;38238;53.304;6.606;2023-03-01T17:35:56;4.70;99.90
52285;DHT22;38238;53.304;6.606;2023-03-01T17:38:21;4.70;99.90
52285;DHT22;38238;53.304;6.606;2023-03-01T17:40:47;4.70;99.90
52285;DHT22;38238;53.304;6.606;2023-03-01T17:43:14;4.60;99.90
52285;DHT22;38238;53.304;6.606;2023-03-01T17:45:40;4.60;99.90
52285;DHT22;38238;53.304;6.606;2023-03-01T17:48:09;4.50;99.90
52285;DHT22;38238;53.304;6.606;2023-03-01T17:50:37;4.50;99.90
52285;DHT22;38238;53.304;6.606;2023-03-01T17:53:03;4.40;99.90
52285;DHT22;38238;53.304;6.606;2023-03-01T17:55:37;4.40;99.90
52285;DHT22;38238;53.304;6.606;2023-03-01T17:58:04;4.30;99.90
52285;DHT22;38238;53.304;6.606;2023-03-01T18:00:30;4.30;99.90
52285;DHT22;38238;53.304;6.606;2023-03-01T18:02:56;4.20;99.90